Time;durP1;ratioP1;P1;durP2;ratioP2;P2;SDS_P1;SDS_P2;PMS_P1;PMS_P2;Temp;Humidity;BMP_temperature;BMP_pressure;BME280_temperature;BME280_humidity;BME280_pressure;Samples;Min_cycle;Max_cycle;Signal;HPM_P1;HPM_P2
2024/01/17 00:00:20;;;;;;;11.77;5.88;;;;;;;;;;5102437;28;20570;-80
2024/01/17 00:02:46;;;;;;;11.25;5.72;;;;;;;;;;5118400;28;20122;-80
2024/01/17 00:05:12;;;;;;;15.35;6.00;;;;;;;;;;5117024;28;20039;-80
2024/01/17 00:07:39;;;;;;;11.10;6.05;;;;;;;;;;5115881;28;20063;-80
2024/01/17 00:10:05;;;;;;;13.18;6.40;;;;;;;;;;5108480;28;20055;-80
2024/01/17 00:12:31;;;;;;;13.32;6.15;;;;;;;;;;5109360;28;20051;-80
2024/01/17 00:14:57;;;;;;;11.73;6.05;;;;;;;;;;5106496;28;20040;-80
2024/01/17 00:17:24;;;;;;;13.75;6.47;;;;;;;;;;5118048;28;20048;-80
2024/01/17 00:19:50;;;;;;;15.05;6.70;;;;;;;;;;5102159;28;20032;-80
2024/01/17 00:22:16;;;;;;;12.02;6.78;;;;;;;;;;5107875;28;20485;-80
2024/01/17 00:24:43;;;;;;;14.45;6.25;;;;;;;;;;5106121;28;20040;-80
2024/01/17 00:27:09;;;;;;;12.48;6.55;;;;;;;;;;5101476;28;20051;-80
2024/01/17 00:29:36;;;;;;;15.10;6.00;;;;;;;;;;5118572;28;20077;-80
2024/01/17 00:32:02;;;;;;;12.88;6.50;;;;;;;;;;5105492;28;20043;-80
2024/01/17 00:34:28;;;;;;;15.48;7.18;;;;;;;;;;5120460;28;20039;-81
2024/01/17 00:36:54;;;;;;;13.75;6.53;;;;;;;;;;5107960;28;20043;-80
2024/01/17 00:39:22;;;;;;;14.48;7.50;;;;;;;;;;5111029;28;20043;-80
2024/01/17 00:41:49;;;;;;;16.08;7.10;;;;;;;;;;5104385;28;20051;-80
2024/01/17 00:44:18;;;;;;;14.40;6.93;;;;;;;;;;5114381;28;20055;-80
2024/01/17 00:46:45;;;;;;;13.75;7.40;;;;;;;;;;5117548;28;20055;-80
2024/01/17 00:49:11;;;;;;;15.90;7.80;;;;;;;;;;5104218;28;20107;-80
2024/01/17 00:51:37;;;;;;;12.20;7.13;;;;;;;;;;5109149;28;20043;-80
2024/01/17 00:54:04;;;;;;;17.63;8.10;;;;;;;;;;5102465;28;20046;-80
2024/01/17 00:56:32;;;;;;;15.80;8.18;;;;;;;;;;5083571;28;20052;-80
2024/01/17 00:58:58;;;;;;;16.40;7.93;;;;;;;;;;5122398;28;20073;-80
2024/01/17 01:01:24;;;;;;;15.55;7.80;;;;;;;;;;5101304;28;20040;-80
2024/01/17 01:03:50;;;;;;;18.00;8.70;;;;;;;;;;5101727;28;20043;-80
2024/01/17 01:06:16;;;;;;;17.52;9.60;;;;;;;;;;5111176;28;20039;-80
2024/01/17 01:08:43;;;;;;;17.15;8.77;;;;;;;;;;5106592;28;20048;-80
2024/01/17 01:11:09;;;;;;;15.38;8.70;;;;;;;;;;5101704;28;20105;-80
2024/01/17 01:13:35;;;;;;;21.30;9.73;;;;;;;;;;5102358;28;20077;-80
2024/01/17 01:16:03;;;;;;;19.02;9.68;;;;;;;;;;5105099;28;20063;-80
2024/01/17 01:18:31;;;;;;;17.67;10.73;;;;;;;;;;5124146;28;20048;-81
2024/01/17 01:20:57;;;;;;;18.05;10.13;;;;;;;;;;5115115;28;20040;-80
2024/01/17 01:23:25;;;;;;;17.45;10.45;;;;;;;;;;5101741;28;20061;-80
2024/01/17 01:25:51;;;;;;;16.40;9.93;;;;;;;;;;5114258;28;20043;-80
2024/01/17 01:28:17;;;;;;;18.92;10.10;;;;;;;;;;5105234;28;20044;-80
2024/01/17 01:30:43;;;;;;;20.08;9.27;;;;;;;;;;5120095;28;20044;-80
2024/01/17 01:33:09;;;;;;;16.98;9.88;;;;;;;;;;5115715;28;20048;-80
2024/01/17 01:35:35;;;;;;;16.65;9.85;;;;;;;;;;5114804;28;20051;-80
2024/01/17 01:38:02;;;;;;;22.10;9.65;;;;;;;;;;5114626;28;20040;-80
2024/01/17 01:40:28;;;;;;;18.73;9.15;;;;;;;;;;5101856;28;20059;-82
2024/01/17 01:42:58;;;;;;;17.50;9.43;;;;;;;;;;5111752;28;20043;-80
2024/01/17 01:45:24;;;;;;;17.27;10.15;;;;;;;;;;5108161;28;20127;-80
2024/01/17 01:47:51;;;;;;;17.42;10.13;;;;;;;;;;5120119;28;20040;-80
2024/01/17 01:50:17;;;;;;;16.70;9.60;;;;;;;;;;5108201;28;20036;-80
2024/01/17 01:52:44;;;;;;;18.98;10.27;;;;;;;;;;5101227;28;20040;-81
2024/01/17 01:55:10;;;;;;;18.42;10.05;;;;;;;;;;5101675;28;20044;-80
2024/01/17 01:57:37;;;;;;;19.58;9.63;;;;;;;;;;5117407;28;20036;-80
2024/01/17 02:00:04;;;;;;;18.33;10.23;;;;;;;;;;5111094;28;20047;-81
2024/01/17 02:02:31;;;;;;;17.08;9.93;;;;;;;;;;5108620;28;20031;-80
2024/01/17 02:04:57;;;;;;;17.77;10.07;;;;;;;;;;5110459;28;20097;-80
2024/01/17 02:07:24;;;;;;;20.58;11.15;;;;;;;;;;5101287;28;20057;-80
2024/01/17 02:09:50;;;;;;;16.70;10.27;;;;;;;;;;5101465;28;20040;-80
2024/01/17 02:12:17;;;;;;;21.13;11.25;;;;;;;;;;5100184;28;20052;-81
2024/01/17 02:14:43;;;;;;;17.38;11.10;;;;;;;;;;5109237;28;20036;-80
2024/01/17 02:17:09;;;;;;;19.63;11.48;;;;;;;;;;5119607;28;20063;-80
2024/01/17 02:19:36;;;;;;;18.15;11.70;;;;;;;;;;5116109;28;20032;-80
2024/01/17 02:22:02;;;;;;;18.30;11.48;;;;;;;;;;5105872;28;20154;-80
2024/01/17 02:24:28;;;;;;;21.60;11.65;;;;;;;;;;5105199;28;20448;-80
2024/01/17 02:26:59;;;;;;;17.35;11.38;;;;;;;;;;5103237;28;20566;-80
2024/01/17 02:29:25;;;;;;;20.30;11.23;;;;;;;;;;5104584;28;20393;-80
2024/01/17 02:31:52;;;;;;;19.10;11.52;;;;;;;;;;5104533;28;20052;-80
2024/01/17 02:34:18;;;;;;;19.50;12.40;;;;;;;;;;5118583;28;20040;-79
2024/01/17 02:36:44;;;;;;;20.83;12.38;;;;;;;;;;5110127;28;20040;-80
2024/01/17 02:39:11;;;;;;;18.40;12.07;;;;;;;;;;5106923;28;20052;-80
2024/01/17 02:41:37;;;;;;;22.85;12.18;;;;;;;;;;5104366;28;20039;-80
2024/01/17 02:44:03;;;;;;;20.98;12.07;;;;;;;;;;5113763;28;20055;-80
2024/01/17 02:46:29;;;;;;;19.90;12.02;;;;;;;;;;5111996;28;20044;-80
2024/01/17 02:48:55;;;;;;;19.77;12.05;;;;;;;;;;5112081;28;20044;-80
2024/01/17 02:51:21;;;;;;;17.80;11.32;;;;;;;;;;5106895;28;20051;-80
2024/01/17 02:53:47;;;;;;;21.17;11.43;;;;;;;;;;5110829;28;20417;-80
2024/01/17 02:56:14;;;;;;;22.17;12.13;;;;;;;;;;5122828;28;20043;-79
2024/01/17 02:58:40;;;;;;;22.83;12.65;;;;;;;;;;5104997;28;20036;-80
2024/01/17 03:01:07;;;;;;;18.15;12.10;;;;;;;;;;5103676;28;20044;-80
2024/01/17 03:03:34;;;;;;;22.15;12.75;;;;;;;;;;5103632;28;20409;-80
2024/01/17 03:06:00;;;;;;;17.75;11.98;;;;;;;;;;5110246;28;20055;-81
2024/01/17 03:08:26;;;;;;;19.02;11.70;;;;;;;;;;5110594;28;20044;-79
2024/01/17 03:10:52;;;;;;;20.38;11.50;;;;;;;;;;5109368;28;20051;-80
2024/01/17 03:13:18;;;;;;;20.13;12.20;;;;;;;;;;5109581;28;20048;-80
2024/01/17 03:15:44;;;;;;;20.83;11.80;;;;;;;;;;5114195;28;20549;-80
2024/01/17 03:18:13;;;;;;;21.10;12.05;;;;;;;;;;5122890;28;21348;-80
2024/01/17 03:20:42;;;;;;;20.52;11.52;;;;;;;;;;5122185;28;20393;-80
2024/01/17 03:23:08;;;;;;;18.17;11.02;;;;;;;;;;5109979;28;20048;-80
2024/01/17 03:25:35;;;;;;;22.33;12.15;;;;;;;;;;5102635;28;20048;-80
2024/01/17 03:28:01;;;;;;;17.73;11.25;;;;;;;;;;5106436;28;20036;-80
2024/01/17 03:30:27;;;;;;;22.80;12.75;;;;;;;;;;5117588;28;20047;-80
2024/01/17 03:32:53;;;;;;;21.30;10.95;;;;;;;;;;5113041;28;20040;-79
2024/01/17 03:35:19;;;;;;;19.90;11.32;;;;;;;;;;5103317;28;20051;-80
2024/01/17 03:37:45;;;;;;;17.80;11.27;;;;;;;;;;5117179;28;20046;-80
2024/01/17 03:40:11;;;;;;;19.50;11.32;;;;;;;;;;5124245;28;20053;-80
2024/01/17 03:42:37;;;;;;;20.67;11.40;;;;;;;;;;5113209;28;20044;-80
2024/01/17 03:45:03;;;;;;;20.52;11.52;;;;;;;;;;5104879;28;20101;-80
2024/01/17 03:47:29;;;;;;;17.50;11.07;;;;;;;;;;5110613;28;20403;-80
2024/01/17 03:49:55;;;;;;;18.92;11.20;;;;;;;;;;5116840;28;20048;-80
2024/01/17 03:52:21;;;;;;;19.35;11.73;;;;;;;;;;5111515;28;20043;-80
2024/01/17 03:54:47;;;;;;;16.80;10.88;;;;;;;;;;5110419;28;20051;-80
2024/01/17 03:57:13;;;;;;;19.02;11.15;;;;;;;;;;5103242;28;20052;-80
2024/01/17 03:59:46;;;;;;;16.85;11.05;;;;;;;;;;5115909;28;20047;-80
2024/01/17 04:02:12;;;;;;;21.25;10.90;;;;;;;;;;5102835;28;20404;-80
2024/01/17 04:04:41;;;;;;;18.65;11.15;;;;;;;;;;5103917;28;20040;-81
2024/01/17 04:07:09;;;;;;;18.85;10.90;;;;;;;;;;5103389;28;20473;-81
2024/01/17 04:09:35;;;;;;;16.55;10.18;;;;;;;;;;5117282;28;20039;-80
2024/01/17 04:12:01;;;;;;;17.63;10.80;;;;;;;;;;5122323;28;20043;-81
2024/01/17 04:14:28;;;;;;;19.27;11.05;;;;;;;;;;5112276;28;20515;-80
2024/01/17 04:16:54;;;;;;;16.60;10.52;;;;;;;;;;5106368;28;20102;-81
2024/01/17 04:19:20;;;;;;;19.23;11.00;;;;;;;;;;5102967;28;20039;-80
2024/01/17 04:21:46;;;;;;;19.73;11.52;;;;;;;;;;5100928;28;20047;-80
2024/01/17 04:24:13;;;;;;;16.17;10.75;;;;;;;;;;5084310;28;20044;-80
2024/01/17 04:26:39;;;;;;;16.40;10.48;;;;;;;;;;5120092;28;20069;-81
2024/01/17 04:29:05;;;;;;;19.98;10.23;;;;;;;;;;5120051;28;20050;-80
2024/01/17 04:31:32;;;;;;;18.27;9.30;;;;;;;;;;5113165;28;20040;-80
2024/01/17 04:33:58;;;;;;;17.15;10.27;;;;;;;;;;5106010;28;20112;-80
2024/01/17 04:36:27;;;;;;;18.05;10.15;;;;;;;;;;5108143;28;20047;-80
2024/01/17 04:38:54;;;;;;;16.73;10.50;;;;;;;;;;5118112;28;20096;-80
2024/01/17 04:41:20;;;;;;;17.55;10.40;;;;;;;;;;5117183;28;20176;-80
2024/01/17 04:43:46;;;;;;;15.07;9.93;;;;;;;;;;5113269;28;20413;-80
2024/01/17 04:46:13;;;;;;;17.17;9.60;;;;;;;;;;5116091;28;20040;-80
2024/01/17 04:48:40;;;;;;;17.42;9.52;;;;;;;;;;5103057;28;20051;-80
2024/01/17 04:51:07;;;;;;;19.80;9.70;;;;;;;;;;5102279;28;20044;-80
2024/01/17 04:53:33;;;;;;;15.25;9.80;;;;;;;;;;5115939;28;20039;-80
2024/01/17 04:56:01;;;;;;;17.20;9.73;;;;;;;;;;5120551;28;20122;-80
2024/01/17 04:58:28;;;;;;;16.13;10.02;;;;;;;;;;5102086;28;20048;-80
2024/01/17 05:00:54;;;;;;;18.33;10.07;;;;;;;;;;5115671;28;20039;-80
2024/01/17 05:03:20;;;;;;;17.10;10.15;;;;;;;;;;5116776;28;20114;-80
2024/01/17 05:05:46;;;;;;;19.50;10.73;;;;;;;;;;5111758;28;20039;-80
2024/01/17 05:08:13;;;;;;;16.67;10.00;;;;;;;;;;5115835;28;20040;-79
2024/01/17 05:10:45;;;;;;;15.75;10.00;;;;;;;;;;5113647;28;20048;-80
2024/01/17 05:13:12;;;;;;;18.73;10.70;;;;;;;;;;5112837;28;20463;-80
2024/01/17 05:15:39;;;;;;;19.45;9.93;;;;;;;;;;5113382;28;20077;-80
2024/01/17 05:18:05;;;;;;;19.67;9.43;;;;;;;;;;5112006;28;20044;-80
2024/01/17 05:20:31;;;;;;;14.15;9.55;;;;;;;;;;5102055;28;20561;-80
2024/01/17 05:22:57;;;;;;;14.55;9.68;;;;;;;;;;5100849;28;20073;-80
2024/01/17 05:25:23;;;;;;;17.15;8.85;;;;;;;;;;5112512;28;20051;-80
2024/01/17 05:27:52;;;;;;;15.93;9.27;;;;;;;;;;5110039;28;20059;-80
2024/01/17 05:30:19;;;;;;;16.55;9.20;;;;;;;;;;5101253;28;20507;-80
2024/01/17 05:32:45;;;;;;;15.82;9.18;;;;;;;;;;5118882;28;20051;-80
2024/01/17 05:35:11;;;;;;;15.68;9.70;;;;;;;;;;5117350;28;20043;-80
2024/01/17 05:37:46;;;;;;;14.80;9.48;;;;;;;;;;5106194;28;20040;-80
2024/01/17 05:40:13;;;;;;;17.42;9.90;;;;;;;;;;5101554;28;20139;-80
2024/01/17 05:42:40;;;;;;;20.60;10.57;;;;;;;;;;5103681;28;20048;-80
2024/01/17 05:45:07;;;;;;;14.82;9.57;;;;;;;;;;5121383;28;20044;-80
2024/01/17 05:47:35;;;;;;;16.50;9.38;;;;;;;;;;5112084;28;20051;-80
2024/01/17 05:50:02;;;;;;;19.67;9.20;;;;;;;;;;5113401;28;20040;-80
2024/01/17 05:52:28;;;;;;;17.60;9.75;;;;;;;;;;5116779;28;20044;-80
2024/01/17 05:54:54;;;;;;;15.90;9.43;;;;;;;;;;5121359;28;20074;-80
2024/01/17 05:57:20;;;;;;;17.70;9.68;;;;;;;;;;5108627;28;20031;-80
2024/01/17 05:59:46;;;;;;;15.43;9.60;;;;;;;;;;5108135;28;20047;-80
2024/01/17 06:02:12;;;;;;;15.90;9.90;;;;;;;;;;5107054;28;20473;-80
2024/01/17 06:04:38;;;;;;;18.25;9.65;;;;;;;;;;5123475;28;20047;-80
2024/01/17 06:07:04;;;;;;;16.65;9.50;;;;;;;;;;5116822;28;20044;-80
2024/01/17 06:09:33;;;;;;;18.42;9.60;;;;;;;;;;5121475;28;20477;-80
2024/01/17 06:12:00;;;;;;;15.73;11.05;;;;;;;;;;5114505;28;20122;-80
2024/01/17 06:14:26;;;;;;;14.45;9.48;;;;;;;;;;5120477;28;20044;-80
2024/01/17 06:16:52;;;;;;;14.70;8.98;;;;;;;;;;5124034;28;20058;-80
2024/01/17 06:19:18;;;;;;;17.13;9.68;;;;;;;;;;5116469;28;20100;-80
2024/01/17 06:21:45;;;;;;;14.60;9.68;;;;;;;;;;5113001;28;20520;-80
2024/01/17 06:24:11;;;;;;;17.70;9.98;;;;;;;;;;5104931;28;20056;-80
2024/01/17 06:26:37;;;;;;;15.98;10.05;;;;;;;;;;5123364;28;20040;-80
2024/01/17 06:29:03;;;;;;;19.73;9.82;;;;;;;;;;5125559;28;20056;-80
2024/01/17 06:31:29;;;;;;;17.50;9.98;;;;;;;;;;5122814;28;20039;-80
2024/01/17 06:33:56;;;;;;;16.38;9.57;;;;;;;;;;5123934;28;20047;-80
2024/01/17 06:36:23;;;;;;;19.15;10.52;;;;;;;;;;5108448;28;20122;-80
2024/01/17 06:38:49;;;;;;;20.80;9.77;;;;;;;;;;5116101;28;20052;-80
2024/01/17 06:41:15;;;;;;;15.23;10.02;;;;;;;;;;5123107;28;20051;-80
2024/01/17 06:43:41;;;;;;;17.92;9.70;;;;;;;;;;5117662;28;20040;-80
2024/01/17 06:46:07;;;;;;;17.83;10.38;;;;;;;;;;5120301;28;20055;-80
2024/01/17 06:48:33;;;;;;;19.17;10.40;;;;;;;;;;5117703;28;20048;-80
2024/01/17 06:50:59;;;;;;;17.55;10.25;;;;;;;;;;5123954;28;20048;-80
2024/01/17 06:53:25;;;;;;;14.32;9.93;;;;;;;;;;5115576;28;20089;-80
2024/01/17 06:55:51;;;;;;;18.83;9.45;;;;;;;;;;5116827;28;20112;-80
2024/01/17 06:58:18;;;;;;;16.10;9.68;;;;;;;;;;5123602;28;20050;-80
2024/01/17 07:00:45;;;;;;;16.52;8.93;;;;;;;;;;5124551;28;20069;-80
2024/01/17 07:03:11;;;;;;;14.98;9.55;;;;;;;;;;5111551;28;20047;-80
2024/01/17 07:05:37;;;;;;;16.90;9.50;;;;;;;;;;5115669;28;20469;-80
2024/01/17 07:08:03;;;;;;;14.40;9.20;;;;;;;;;;5115007;28;20040;-80
2024/01/17 07:10:29;;;;;;;16.70;9.98;;;;;;;;;;5119084;28;20040;-80
2024/01/17 07:12:56;;;;;;;15.52;8.70;;;;;;;;;;5115302;28;20054;-80
2024/01/17 07:15:22;;;;;;;15.10;9.43;;;;;;;;;;5105153;28;20056;-80
2024/01/17 07:17:48;;;;;;;15.38;9.02;;;;;;;;;;5109688;28;20075;-80
2024/01/17 07:20:15;;;;;;;16.83;9.25;;;;;;;;;;5118907;28;20043;-80
2024/01/17 07:22:41;;;;;;;16.30;9.32;;;;;;;;;;5113950;28;20040;-80
2024/01/17 07:25:08;;;;;;;16.27;8.98;;;;;;;;;;5112256;28;20067;-80
2024/01/17 07:27:35;;;;;;;15.40;9.75;;;;;;;;;;5111787;28;20071;-80
2024/01/17 07:30:01;;;;;;;13.93;9.10;;;;;;;;;;5123992;28;20051;-80
2024/01/17 07:32:27;;;;;;;16.60;9.63;;;;;;;;;;5118830;28;20044;-80
2024/01/17 07:34:53;;;;;;;16.58;9.35;;;;;;;;;;5104129;28;20097;-79
2024/01/17 07:37:19;;;;;;;14.90;8.80;;;;;;;;;;5105112;28;20081;-80
2024/01/17 07:39:45;;;;;;;18.08;9.27;;;;;;;;;;5114629;28;20096;-80
2024/01/17 07:42:11;;;;;;;15.05;9.25;;;;;;;;;;5106929;28;20059;-80
2024/01/17 07:44:37;;;;;;;16.80;8.80;;;;;;;;;;5109986;28;20059;-82
2024/01/17 07:47:03;;;;;;;15.10;8.85;;;;;;;;;;5102721;28;20097;-80
2024/01/17 07:49:29;;;;;;;16.48;9.23;;;;;;;;;;5102362;28;20440;-81
2024/01/17 07:51:55;;;;;;;17.38;9.00;;;;;;;;;;5121595;28;20043;-80
2024/01/17 07:54:23;;;;;;;15.02;8.90;;;;;;;;;;5111402;28;20047;-80
2024/01/17 07:56:49;;;;;;;14.43;8.52;;;;;;;;;;5122312;28;20040;-79
2024/01/17 07:59:16;;;;;;;14.35;8.45;;;;;;;;;;5115276;28;20097;-79
2024/01/17 08:01:42;;;;;;;17.88;9.15;;;;;;;;;;5108301;28;20044;-79
2024/01/17 08:04:08;;;;;;;13.90;8.57;;;;;;;;;;5116786;28;20129;-79
2024/01/17 08:06:34;;;;;;;16.10;8.07;;;;;;;;;;5101936;28;20044;-79
2024/01/17 08:09:02;;;;;;;15.35;8.05;;;;;;;;;;5118286;28;20050;-79
2024/01/17 08:11:28;;;;;;;16.17;8.70;;;;;;;;;;5105556;28;20069;-80
2024/01/17 08:13:54;;;;;;;17.25;8.80;;;;;;;;;;5107115;28;20055;-79
2024/01/17 08:16:21;;;;;;;16.13;8.25;;;;;;;;;;5107036;28;20052;-80
2024/01/17 08:18:48;;;;;;;14.73;9.02;;;;;;;;;;5101228;28;20089;-79
2024/01/17 08:21:14;;;;;;;14.38;8.73;;;;;;;;;;5100529;28;20096;-79
2024/01/17 08:23:40;;;;;;;16.23;8.77;;;;;;;;;;5107816;28;20044;-79
2024/01/17 08:26:07;;;;;;;17.27;8.55;;;;;;;;;;5101211;28;20083;-80
2024/01/17 08:28:33;;;;;;;14.43;7.60;;;;;;;;;;5101465;28;20063;-80
2024/01/17 08:30:59;;;;;;;15.40;8.40;;;;;;;;;;5108847;28;20040;-80
2024/01/17 08:33:25;;;;;;;12.60;8.10;;;;;;;;;;5105800;28;20051;-79
2024/01/17 08:35:52;;;;;;;17.25;8.63;;;;;;;;;;5113363;28;20060;-79
2024/01/17 08:38:18;;;;;;;13.40;8.30;;;;;;;;;;5114344;28;20126;-80
2024/01/17 08:40:44;;;;;;;14.93;8.90;;;;;;;;;;5113698;28;22020;-80
2024/01/17 08:43:10;;;;;;;17.10;8.98;;;;;;;;;;5109390;28;20403;-80
2024/01/17 08:45:36;;;;;;;14.27;8.70;;;;;;;;;;5111376;28;20055;-79
2024/01/17 08:48:02;;;;;;;13.15;7.95;;;;;;;;;;5110075;28;20055;-79
2024/01/17 08:50:28;;;;;;;15.10;7.95;;;;;;;;;;5111663;28;20048;-80
2024/01/17 08:52:54;;;;;;;13.07;8.20;;;;;;;;;;5101804;28;20168;-80
2024/01/17 08:55:20;;;;;;;13.15;8.15;;;;;;;;;;5111829;28;20063;-80
2024/01/17 08:57:46;;;;;;;17.92;8.38;;;;;;;;;;5116415;28;20115;-80
2024/01/17 09:00:14;;;;;;;15.93;8.23;;;;;;;;;;5109015;28;20058;-80
2024/01/17 09:02:40;;;;;;;14.35;9.25;;;;;;;;;;5119345;28;20054;-80
2024/01/17 09:05:06;;;;;;;12.93;8.30;;;;;;;;;;5120560;28;20409;-79
2024/01/17 09:07:32;;;;;;;14.82;8.55;;;;;;;;;;5115865;28;20048;-79
2024/01/17 09:09:58;;;;;;;14.35;8.70;;;;;;;;;;5121218;28;20052;-80
2024/01/17 09:12:25;;;;;;;16.77;8.10;;;;;;;;;;5121252;28;20164;-79
2024/01/17 09:14:51;;;;;;;14.88;8.23;;;;;;;;;;5120676;28;20043;-80
2024/01/17 09:17:18;;;;;;;16.58;8.25;;;;;;;;;;5121478;28;20621;-80
2024/01/17 09:19:44;;;;;;;14.05;8.60;;;;;;;;;;5103796;28;20373;-80
2024/01/17 09:22:10;;;;;;;13.25;8.30;;;;;;;;;;5113278;28;20468;-80
2024/01/17 09:24:37;;;;;;;15.60;8.68;;;;;;;;;;5115008;28;20124;-80
2024/01/17 09:27:03;;;;;;;16.00;8.50;;;;;;;;;;5109054;28;20059;-79
2024/01/17 09:29:33;;;;;;;19.20;9.18;;;;;;;;;;5116767;28;20062;-80
2024/01/17 09:32:00;;;;;;;16.50;8.60;;;;;;;;;;5108923;28;20080;-80
2024/01/17 09:34:26;;;;;;;13.27;8.35;;;;;;;;;;5110021;28;20044;-80
2024/01/17 09:36:52;;;;;;;14.38;8.75;;;;;;;;;;5103799;28;20066;-80
2024/01/17 09:39:18;;;;;;;12.25;8.30;;;;;;;;;;5103214;28;20050;-80
2024/01/17 09:41:44;;;;;;;14.88;8.50;;;;;;;;;;5111410;28;20062;-80
2024/01/17 09:44:12;;;;;;;15.73;8.40;;;;;;;;;;5106663;28;20070;-80
2024/01/17 09:46:40;;;;;;;14.80;8.82;;;;;;;;;;5114051;28;20051;-80
2024/01/17 09:49:06;;;;;;;16.77;9.32;;;;;;;;;;5117734;28;20043;-81
2024/01/17 09:51:33;;;;;;;16.38;8.43;;;;;;;;;;5109370;28;20051;-80
2024/01/17 09:54:00;;;;;;;13.35;8.70;;;;;;;;;;5109556;28;20126;-80
2024/01/17 09:56:30;;;;;;;14.45;8.38;;;;;;;;;;5118383;28;20040;-80
2024/01/17 09:58:57;;;;;;;20.63;9.63;;;;;;;;;;5102730;28;20063;-81
2024/01/17 10:01:24;;;;;;;17.08;8.48;;;;;;;;;;5102585;28;20123;-81
2024/01/17 10:03:51;;;;;;;16.90;8.80;;;;;;;;;;5099705;28;20048;-79
2024/01/17 10:06:18;;;;;;;14.52;8.43;;;;;;;;;;5095615;28;20118;-79
2024/01/17 10:08:44;;;;;;;13.82;8.30;;;;;;;;;;5098333;28;20682;-80
2024/01/17 10:11:10;;;;;;;15.73;8.07;;;;;;;;;;5105717;28;20851;-80
2024/01/17 10:13:37;;;;;;;15.77;8.02;;;;;;;;;;5098113;28;20457;-79
2024/01/17 10:16:08;;;;;;;15.43;8.32;;;;;;;;;;5096332;28;20521;-80
2024/01/17 10:18:35;;;;;;;15.98;8.77;;;;;;;;;;5102195;28;20048;-79
2024/01/17 10:21:03;;;;;;;13.30;7.82;;;;;;;;;;5113673;28;20396;-79
2024/01/17 10:23:29;;;;;;;14.23;8.18;;;;;;;;;;5108580;28;20096;-79
2024/01/17 10:25:56;;;;;;;15.50;8.35;;;;;;;;;;5115087;28;20055;-79
2024/01/17 10:28:23;;;;;;;14.43;8.68;;;;;;;;;;5116884;28;20079;-79
2024/01/17 10:30:50;;;;;;;16.27;7.97;;;;;;;;;;5117224;28;20069;-80
2024/01/17 10:33:16;;;;;;;13.48;7.40;;;;;;;;;;5098501;28;20047;-80
2024/01/17 10:35:42;;;;;;;12.07;7.72;;;;;;;;;;5109935;28;20070;-79
2024/01/17 10:38:08;;;;;;;14.75;8.88;;;;;;;;;;5100238;28;20046;-80
2024/01/17 10:40:35;;;;;;;15.27;8.38;;;;;;;;;;5112477;28;20051;-80
2024/01/17 10:43:10;;;;;;;13.85;8.32;;;;;;;;;;5109789;28;20062;-80
2024/01/17 10:45:37;;;;;;;15.13;7.95;;;;;;;;;;5106777;28;20097;-79
2024/01/17 10:48:03;;;;;;;15.27;8.52;;;;;;;;;;5110219;28;20062;-79
2024/01/17 10:50:30;;;;;;;15.05;8.40;;;;;;;;;;5100386;28;20040;-79
2024/01/17 10:53:07;;;;;;;16.00;9.18;;;;;;;;;;5113729;28;20382;-79
2024/01/17 10:55:34;;;;;;;15.50;8.45;;;;;;;;;;5106207;28;20108;-78
2024/01/17 10:58:04;;;;;;;15.27;9.18;;;;;;;;;;5116989;28;20032;-79
2024/01/17 11:00:31;;;;;;;13.05;7.55;;;;;;;;;;5102891;28;20416;-79
2024/01/17 11:02:59;;;;;;;17.58;9.10;;;;;;;;;;5109937;28;20717;-80
2024/01/17 11:05:27;;;;;;;16.17;8.88;;;;;;;;;;5104427;28;20044;-80
2024/01/17 11:07:53;;;;;;;15.80;8.02;;;;;;;;;;5099548;28;20052;-79
2024/01/17 11:10:20;;;;;;;13.02;8.48;;;;;;;;;;5110668;28;20121;-79
2024/01/17 11:12:46;;;;;;;16.55;8.93;;;;;;;;;;5106691;28;20078;-79
2024/01/17 11:15:12;;;;;;;16.35;8.43;;;;;;;;;;5104470;28;20046;-79
2024/01/17 11:17:40;;;;;;;15.00;9.10;;;;;;;;;;5110697;28;20127;-79
2024/01/17 11:20:10;;;;;;;15.95;8.88;;;;;;;;;;5112559;28;20036;-79
2024/01/17 11:22:37;;;;;;;15.27;8.82;;;;;;;;;;5104394;28;20048;-79
2024/01/17 11:25:12;;;;;;;14.32;8.43;;;;;;;;;;5121242;27;20062;-80
2024/01/17 11:27:38;;;;;;;15.48;8.88;;;;;;;;;;5107669;28;20055;-79
2024/01/17 11:30:11;;;;;;;13.48;8.15;;;;;;;;;;5098412;28;20040;-80
2024/01/17 11:32:47;;;;;;;14.48;7.80;;;;;;;;;;5107214;28;20131;-78
2024/01/17 11:35:32;;;;;;;15.05;8.45;;;;;;;;;;5094712;28;20406;-78
2024/01/17 11:37:58;;;;;;;14.00;8.15;;;;;;;;;;5096699;28;20115;-79
2024/01/17 11:40:24;;;;;;;18.25;8.50;;;;;;;;;;5109234;28;20056;-79
2024/01/17 11:42:50;;;;;;;14.93;9.02;;;;;;;;;;5103340;28;20055;-80
2024/01/17 11:45:16;;;;;;;18.08;8.27;;;;;;;;;;5110873;28;20072;-79
2024/01/17 11:47:52;;;;;;;14.73;8.43;;;;;;;;;;5113214;28;20106;-79
2024/01/17 11:50:21;;;;;;;17.50;8.07;;;;;;;;;;5104228;28;20426;-79
2024/01/17 11:52:47;;;;;;;14.30;8.25;;;;;;;;;;5098023;28;20044;-79
2024/01/17 11:55:13;;;;;;;14.50;8.10;;;;;;;;;;5095839;28;20052;-79
2024/01/17 11:57:39;;;;;;;14.02;8.35;;;;;;;;;;5093957;28;20044;-79
2024/01/17 12:00:06;;;;;;;16.90;8.93;;;;;;;;;;5101157;28;20093;-79
2024/01/17 12:02:40;;;;;;;14.60;8.95;;;;;;;;;;5095947;28;20040;-79
2024/01/17 12:05:07;;;;;;;17.75;8.35;;;;;;;;;;5095817;28;20074;-79
2024/01/17 12:07:40;;;;;;;18.75;8.57;;;;;;;;;;5103907;28;20063;-79
2024/01/17 12:10:09;;;;;;;13.80;8.40;;;;;;;;;;5095654;28;20048;-79
2024/01/17 12:12:35;;;;;;;15.63;8.32;;;;;;;;;;5096752;28;20347;-79
2024/01/17 12:15:02;;;;;;;17.42;8.57;;;;;;;;;;5110042;28;20093;-80
2024/01/17 12:17:28;;;;;;;14.82;8.57;;;;;;;;;;5105218;28;20105;-80
2024/01/17 12:19:54;;;;;;;15.57;8.40;;;;;;;;;;5101491;28;20040;-78
2024/01/17 12:22:20;;;;;;;16.60;8.32;;;;;;;;;;5101585;28;20382;-79
2024/01/17 12:24:46;;;;;;;14.80;9.18;;;;;;;;;;5113356;28;20044;-80
2024/01/17 12:27:12;;;;;;;14.80;7.97;;;;;;;;;;5098872;28;20056;-79
2024/01/17 12:29:39;;;;;;;18.73;8.90;;;;;;;;;;5112420;28;20043;-80
2024/01/17 12:32:05;;;;;;;16.73;8.82;;;;;;;;;;5114880;28;20047;-79
2024/01/17 12:34:31;;;;;;;15.68;8.50;;;;;;;;;;5098873;28;20109;-80
2024/01/17 12:36:57;;;;;;;16.10;9.02;;;;;;;;;;5101384;28;20497;-80
2024/01/17 12:39:23;;;;;;;15.48;8.90;;;;;;;;;;5096927;28;20063;-79
2024/01/17 12:41:55;;;;;;;15.40;8.57;;;;;;;;;;5102862;28;20040;-79
2024/01/17 12:44:21;;;;;;;13.75;8.80;;;;;;;;;;5097219;28;20051;-80
2024/01/17 12:46:47;;;;;;;15.30;8.65;;;;;;;;;;5107883;28;20062;-79
2024/01/17 12:49:14;;;;;;;15.75;9.02;;;;;;;;;;5103593;28;20051;-79
2024/01/17 12:51:40;;;;;;;15.93;9.13;;;;;;;;;;5115114;28;20489;-79
2024/01/17 12:54:07;;;;;;;17.40;8.35;;;;;;;;;;5098756;28;20044;-80
2024/01/17 12:56:33;;;;;;;14.38;8.45;;;;;;;;;;5097635;28;20060;-80
2024/01/17 12:58:59;;;;;;;15.95;8.50;;;;;;;;;;5113204;28;20043;-80
2024/01/17 13:01:27;;;;;;;14.07;8.77;;;;;;;;;;5112179;28;20119;-79
2024/01/17 13:04:19;;;;;;;12.50;8.38;;;;;;;;;;5097632;28;20063;-79
2024/01/17 13:06:50;;;;;;;14.75;8.25;;;;;;;;;;5097469;28;20052;-80
2024/01/17 13:09:17;;;;;;;14.23;8.23;;;;;;;;;;5105462;28;20482;-79
2024/01/17 13:11:50;;;;;;;14.68;8.23;;;;;;;;;;5104486;28;20048;-79
2024/01/17 13:14:20;;;;;;;16.13;8.50;;;;;;;;;;5114216;28;20048;-80
2024/01/17 13:16:46;;;;;;;16.73;9.43;;;;;;;;;;5119107;28;20044;-79
2024/01/17 13:19:14;;;;;;;23.55;10.93;;;;;;;;;;5120505;28;20442;-80
2024/01/17 13:21:44;;;;;;;20.08;12.05;;;;;;;;;;5114439;28;20116;-79
2024/01/17 13:24:10;;;;;;;17.90;11.35;;;;;;;;;;5113951;28;20047;-79
2024/01/17 13:26:37;;;;;;;19.67;11.40;;;;;;;;;;5121572;28;20047;-80
2024/01/17 13:29:07;;;;;;;19.25;10.82;;;;;;;;;;5120581;28;20488;-79
2024/01/17 13:31:36;;;;;;;20.08;10.48;;;;;;;;;;5119882;28;20039;-79
2024/01/17 13:34:05;;;;;;;24.23;13.70;;;;;;;;;;5120975;28;20043;-79
2024/01/17 13:36:31;;;;;;;23.33;11.48;;;;;;;;;;5102713;28;20077;-80
2024/01/17 13:38:58;;;;;;;18.75;11.75;;;;;;;;;;5108322;28;20079;-79
2024/01/17 13:41:26;;;;;;;16.95;9.88;;;;;;;;;;5109534;28;20048;-79
2024/01/17 13:43:53;;;;;;;14.55;8.95;;;;;;;;;;5120467;28;20059;-79
2024/01/17 13:46:19;;;;;;;16.45;9.48;;;;;;;;;;5113973;28;20104;-80
2024/01/17 13:48:49;;;;;;;16.23;10.60;;;;;;;;;;5120879;28;20052;-80
2024/01/17 13:51:16;;;;;;;16.85;10.23;;;;;;;;;;5114518;28;20046;-79
2024/01/17 13:53:42;;;;;;;17.92;9.75;;;;;;;;;;5121959;28;20071;-80
2024/01/17 13:56:10;;;;;;;16.92;9.38;;;;;;;;;;5126019;28;20051;-79
2024/01/17 13:58:39;;;;;;;13.98;8.82;;;;;;;;;;5121099;28;20127;-79
2024/01/17 14:01:05;;;;;;;15.32;9.30;;;;;;;;;;5116626;28;20040;-80
2024/01/17 14:03:35;;;;;;;14.10;8.95;;;;;;;;;;5114140;28;20063;-80
2024/01/17 14:06:02;;;;;;;16.08;9.18;;;;;;;;;;5101764;28;20048;-79
2024/01/17 14:08:28;;;;;;;14.68;8.45;;;;;;;;;;5121510;28;20043;-80
2024/01/17 14:10:55;;;;;;;12.48;7.60;;;;;;;;;;5119759;28;20053;-80
2024/01/17 14:13:22;;;;;;;17.17;8.80;;;;;;;;;;5118754;28;20046;-80
2024/01/17 14:15:49;;;;;;;15.43;7.88;;;;;;;;;;5102594;28;20056;-78
2024/01/17 14:18:15;;;;;;;15.20;8.38;;;;;;;;;;5104292;28;20105;-80
2024/01/17 14:20:42;;;;;;;13.43;8.63;;;;;;;;;;5124298;28;20044;-79
2024/01/17 14:23:08;;;;;;;15.70;8.25;;;;;;;;;;5123814;28;20051;-79